sensor_id;sensor_type;location;lat;lon;timestamp;P1;durP1;ratioP1;P2;durP2;ratioP2
11541;SDS011;5827;49.482;7.716;2022-10-22T00:01:30;9.88;;;3.58;;
11541;SDS011;5827;49.482;7.716;2022-10-22T00:03:32;7.75;;;3.40;;
11541;SDS011;5827;49.482;7.716;2022-10-22T00:05:34;8.88;;;3.45;;
11541;SDS011;5827;49.482;7.716;2022-10-22T00:07:35;6.57;;;3.25;;
11541;SDS011;5827;49.482;7.716;2022-10-22T00:09:38;7.72;;;3.35;;
11541;SDS011;5827;49.482;7.716;2022-10-22T00:11:40;5.07;;;2.80;;
11541;SDS011;5827;49.482;7.716;2022-10-22T00:13:41;10.98;;;3.40;;
11541;SDS011;5827;49.482;7.716;2022-10-22T00:15:44;8.32;;;3.50;;
11541;SDS011;5827;49.482;7.716;2022-10-22T00:17:45;7.55;;;3.17;;
11541;SDS011;5827;49.482;7.716;2022-10-22T00:19:48;6.78;;;3.20;;
11541;SDS011;5827;49.482;7.716;2022-10-22T00:21:50;8.85;;;3.13;;
11541;SDS011;5827;49.482;7.716;2022-10-22T00:23:51;6.53;;;3.08;;
11541;SDS011;5827;49.482;7.716;2022-10-22T00:25:54;6.75;;;2.80;;
11541;SDS011;5827;49.482;7.716;2022-10-22T00:27:56;8.13;;;3.10;;
11541;SDS011;5827;49.482;7.716;2022-10-22T00:29:57;7.80;;;2.92;;
11541;SDS011;5827;49.482;7.716;2022-10-22T00:31:59;6.80;;;2.75;;
11541;SDS011;5827;49.482;7.716;2022-10-22T00:34:00;9.55;;;2.90;;
11541;SDS011;5827;49.482;7.716;2022-10-22T00:36:02;7.45;;;2.75;;
11541;SDS011;5827;49.482;7.716;2022-10-22T00:38:04;4.90;;;2.47;;
11541;SDS011;5827;49.482;7.716;2022-10-22T00:40:06;4.13;;;2.55;;
11541;SDS011;5827;49.482;7.716;2022-10-22T00:42:10;9.35;;;3.20;;
11541;SDS011;5827;49.482;7.716;2022-10-22T00:46:55;8.80;;;2.60;;
11541;SDS011;5827;49.482;7.716;2022-10-22T00:48:57;5.68;;;2.50;;
11541;SDS011;5827;49.482;7.716;2022-10-22T00:51:03;4.82;;;2.20;;
11541;SDS011;5827;49.482;7.716;2022-10-22T00:53:09;4.65;;;2.10;;
11541;SDS011;5827;49.482;7.716;2022-10-22T00:55:13;5.22;;;2.15;;
11541;SDS011;5827;49.482;7.716;2022-10-22T00:57:17;5.07;;;2.30;;
11541;SDS011;5827;49.482;7.716;2022-10-22T00:59:20;4.23;;;2.10;;
11541;SDS011;5827;49.482;7.716;2022-10-22T01:01:23;4.07;;;1.90;;
11541;SDS011;5827;49.482;7.716;2022-10-22T01:03:27;4.57;;;1.92;;
11541;SDS011;5827;49.482;7.716;2022-10-22T01:05:29;3.35;;;1.65;;
11541;SDS011;5827;49.482;7.716;2022-10-22T01:07:40;5.05;;;1.95;;
11541;SDS011;5827;49.482;7.716;2022-10-22T01:09:45;4.30;;;1.92;;
11541;SDS011;5827;49.482;7.716;2022-10-22T01:11:54;4.95;;;1.92;;
11541;SDS011;5827;49.482;7.716;2022-10-22T01:14:11;5.50;;;2.10;;
11541;SDS011;5827;49.482;7.716;2022-10-22T01:16:18;4.00;;;2.00;;
11541;SDS011;5827;49.482;7.716;2022-10-22T01:18:28;5.35;;;1.75;;
11541;SDS011;5827;49.482;7.716;2022-10-22T01:20:39;3.30;;;1.80;;
11541;SDS011;5827;49.482;7.716;2022-10-22T01:22:54;4.22;;;1.92;;
11541;SDS011;5827;49.482;7.716;2022-10-22T01:25:04;5.53;;;1.90;;
11541;SDS011;5827;49.482;7.716;2022-10-22T01:27:30;2.33;;;1.73;;
11541;SDS011;5827;49.482;7.716;2022-10-22T01:29:41;3.42;;;1.52;;
11541;SDS011;5827;49.482;7.716;2022-10-22T01:31:50;2.38;;;1.52;;
11541;SDS011;5827;49.482;7.716;2022-10-22T01:33:55;3.15;;;1.90;;
11541;SDS011;5827;49.482;7.716;2022-10-22T01:35:59;2.67;;;1.48;;
11541;SDS011;5827;49.482;7.716;2022-10-22T01:38:03;2.97;;;1.50;;
11541;SDS011;5827;49.482;7.716;2022-10-22T01:40:07;1.77;;;1.40;;
11541;SDS011;5827;49.482;7.716;2022-10-22T01:42:11;2.83;;;1.60;;
11541;SDS011;5827;49.482;7.716;2022-10-22T01:44:25;3.30;;;1.40;;
11541;SDS011;5827;49.482;7.716;2022-10-22T01:46:29;2.28;;;1.40;;
11541;SDS011;5827;49.482;7.716;2022-10-22T01:48:33;2.85;;;1.67;;
11541;SDS011;5827;49.482;7.716;2022-10-22T01:50:58;3.17;;;1.50;;
11541;SDS011;5827;49.482;7.716;2022-10-22T01:53:16;2.78;;;1.40;;
11541;SDS011;5827;49.482;7.716;2022-10-22T01:55:23;2.77;;;1.50;;
11541;SDS011;5827;49.482;7.716;2022-10-22T01:57:30;2.83;;;1.45;;
11541;SDS011;5827;49.482;7.716;2022-10-22T01:59:40;2.63;;;1.48;;
11541;SDS011;5827;49.482;7.716;2022-10-22T02:01:53;2.05;;;1.40;;
11541;SDS011;5827;49.482;7.716;2022-10-22T02:04:03;2.08;;;1.15;;
11541;SDS011;5827;49.482;7.716;2022-10-22T02:06:13;3.95;;;1.50;;
11541;SDS011;5827;49.482;7.716;2022-10-22T02:08:18;1.95;;;1.33;;
11541;SDS011;5827;49.482;7.716;2022-10-22T02:10:23;3.63;;;1.38;;
11541;SDS011;5827;49.482;7.716;2022-10-22T02:12:25;4.63;;;1.42;;
11541;SDS011;5827;49.482;7.716;2022-10-22T02:14:29;2.47;;;1.50;;
11541;SDS011;5827;49.482;7.716;2022-10-22T02:16:33;3.17;;;1.70;;
11541;SDS011;5827;49.482;7.716;2022-10-22T02:18:40;3.75;;;1.80;;
11541;SDS011;5827;49.482;7.716;2022-10-22T02:20:44;4.43;;;1.63;;
11541;SDS011;5827;49.482;7.716;2022-10-22T02:22:46;3.72;;;1.60;;
11541;SDS011;5827;49.482;7.716;2022-10-22T02:24:47;4.47;;;1.52;;
11541;SDS011;5827;49.482;7.716;2022-10-22T02:26:51;2.40;;;1.40;;
11541;SDS011;5827;49.482;7.716;2022-10-22T02:29:01;3.20;;;1.38;;
11541;SDS011;5827;49.482;7.716;2022-10-22T02:31:08;5.20;;;1.60;;
11541;SDS011;5827;49.482;7.716;2022-10-22T02:33:14;4.55;;;1.60;;
11541;SDS011;5827;49.482;7.716;2022-10-22T02:35:23;4.03;;;1.40;;
11541;SDS011;5827;49.482;7.716;2022-10-22T02:37:27;2.78;;;1.30;;
11541;SDS011;5827;49.482;7.716;2022-10-22T02:39:29;2.45;;;1.48;;
11541;SDS011;5827;49.482;7.716;2022-10-22T02:41:32;2.53;;;1.30;;
11541;SDS011;5827;49.482;7.716;2022-10-22T02:43:38;4.28;;;1.42;;
11541;SDS011;5827;49.482;7.716;2022-10-22T02:45:41;3.13;;;1.30;;
11541;SDS011;5827;49.482;7.716;2022-10-22T02:47:43;2.95;;;1.10;;
11541;SDS011;5827;49.482;7.716;2022-10-22T02:49:44;2.10;;;1.40;;
11541;SDS011;5827;49.482;7.716;2022-10-22T02:51:47;2.90;;;1.30;;
11541;SDS011;5827;49.482;7.716;2022-10-22T02:53:49;4.05;;;1.20;;
11541;SDS011;5827;49.482;7.716;2022-10-22T02:55:50;3.50;;;1.47;;
11541;SDS011;5827;49.482;7.716;2022-10-22T02:57:52;2.20;;;1.23;;
11541;SDS011;5827;49.482;7.716;2022-10-22T02:59:53;2.35;;;1.13;;
11541;SDS011;5827;49.482;7.716;2022-10-22T03:01:55;2.70;;;1.30;;
11541;SDS011;5827;49.482;7.716;2022-10-22T03:03:56;2.10;;;1.10;;
11541;SDS011;5827;49.482;7.716;2022-10-22T03:05:57;3.15;;;1.15;;
11541;SDS011;5827;49.482;7.716;2022-10-22T03:08:00;2.63;;;1.15;;
11541;SDS011;5827;49.482;7.716;2022-10-22T03:10:02;2.92;;;1.10;;
11541;SDS011;5827;49.482;7.716;2022-10-22T03:12:04;2.70;;;1.20;;
11541;SDS011;5827;49.482;7.716;2022-10-22T03:14:07;2.08;;;1.17;;
11541;SDS011;5827;49.482;7.716;2022-10-22T03:16:09;2.00;;;1.10;;
11541;SDS011;5827;49.482;7.716;2022-10-22T03:18:10;2.40;;;0.90;;
11541;SDS011;5827;49.482;7.716;2022-10-22T03:20:12;1.67;;;1.10;;
11541;SDS011;5827;49.482;7.716;2022-10-22T03:22:14;3.03;;;1.17;;
11541;SDS011;5827;49.482;7.716;2022-10-22T03:24:20;2.40;;;1.02;;
11541;SDS011;5827;49.482;7.716;2022-10-22T03:26:25;2.20;;;1.02;;
11541;SDS011;5827;49.482;7.716;2022-10-22T03:28:27;2.33;;;1.10;;
11541;SDS011;5827;49.482;7.716;2022-10-22T03:30:29;2.90;;;1.10;;
11541;SDS011;5827;49.482;7.716;2022-10-22T03:32:31;1.63;;;1.00;;
11541;SDS011;5827;49.482;7.716;2022-10-22T03:34:32;3.03;;;1.15;;
11541;SDS011;5827;49.482;7.716;2022-10-22T03:36:34;3.38;;;1.13;;
11541;SDS011;5827;49.482;7.716;2022-10-22T03:38:35;4.05;;;1.10;;
11541;SDS011;5827;49.482;7.716;2022-10-22T03:40:40;3.40;;;1.33;;
11541;SDS011;5827;49.482;7.716;2022-10-22T03:42:44;3.80;;;1.20;;
11541;SDS011;5827;49.482;7.716;2022-10-22T03:44:45;2.87;;;1.10;;
11541;SDS011;5827;49.482;7.716;2022-10-22T03:46:47;3.53;;;1.20;;
11541;SDS011;5827;49.482;7.716;2022-10-22T03:48:48;4.70;;;1.10;;
11541;SDS011;5827;49.482;7.716;2022-10-22T03:50:50;3.28;;;1.38;;
11541;SDS011;5827;49.482;7.716;2022-10-22T03:52:51;4.78;;;1.30;;
11541;SDS011;5827;49.482;7.716;2022-10-22T03:54:53;5.88;;;1.60;;
11541;SDS011;5827;49.482;7.716;2022-10-22T03:56:56;2.78;;;1.10;;
11541;SDS011;5827;49.482;7.716;2022-10-22T03:58:58;3.30;;;1.10;;
11541;SDS011;5827;49.482;7.716;2022-10-22T04:01:03;3.67;;;1.10;;
11541;SDS011;5827;49.482;7.716;2022-10-22T04:03:05;2.25;;;1.20;;
11541;SDS011;5827;49.482;7.716;2022-10-22T04:05:07;3.67;;;1.00;;
11541;SDS011;5827;49.482;7.716;2022-10-22T04:07:08;5.85;;;1.33;;
11541;SDS011;5827;49.482;7.716;2022-10-22T04:09:10;3.00;;;1.13;;
11541;SDS011;5827;49.482;7.716;2022-10-22T04:11:11;2.78;;;1.20;;
11541;SDS011;5827;49.482;7.716;2022-10-22T04:13:15;4.38;;;1.10;;
11541;SDS011;5827;49.482;7.716;2022-10-22T04:15:17;3.90;;;0.95;;
11541;SDS011;5827;49.482;7.716;2022-10-22T04:17:18;4.10;;;1.20;;
11541;SDS011;5827;49.482;7.716;2022-10-22T04:19:20;7.10;;;1.30;;
11541;SDS011;5827;49.482;7.716;2022-10-22T04:21:21;4.38;;;1.23;;
11541;SDS011;5827;49.482;7.716;2022-10-22T04:23:23;1.80;;;1.10;;
11541;SDS011;5827;49.482;7.716;2022-10-22T04:25:24;4.00;;;1.20;;
11541;SDS011;5827;49.482;7.716;2022-10-22T04:27:28;4.25;;;1.35;;
11541;SDS011;5827;49.482;7.716;2022-10-22T04:29:31;3.25;;;1.20;;
11541;SDS011;5827;49.482;7.716;2022-10-22T04:31:33;3.83;;;1.13;;
11541;SDS011;5827;49.482;7.716;2022-10-22T04:33:34;4.07;;;1.10;;
11541;SDS011;5827;49.482;7.716;2022-10-22T04:35:37;4.38;;;1.20;;
11541;SDS011;5827;49.482;7.716;2022-10-22T04:37:39;4.63;;;1.00;;
11541;SDS011;5827;49.482;7.716;2022-10-22T04:39:41;4.30;;;1.10;;
11541;SDS011;5827;49.482;7.716;2022-10-22T04:41:42;3.03;;;1.20;;
11541;SDS011;5827;49.482;7.716;2022-10-22T04:43:44;3.03;;;1.00;;
11541;SDS011;5827;49.482;7.716;2022-10-22T04:45:48;2.75;;;1.00;;
11541;SDS011;5827;49.482;7.716;2022-10-22T04:47:49;7.45;;;1.35;;
11541;SDS011;5827;49.482;7.716;2022-10-22T04:49:51;2.60;;;1.10;;
11541;SDS011;5827;49.482;7.716;2022-10-22T04:51:52;5.45;;;1.15;;
11541;SDS011;5827;49.482;7.716;2022-10-22T04:53:54;5.07;;;1.20;;
11541;SDS011;5827;49.482;7.716;2022-10-22T04:56:05;3.83;;;1.30;;
11541;SDS011;5827;49.482;7.716;2022-10-22T04:58:07;4.90;;;1.30;;
11541;SDS011;5827;49.482;7.716;2022-10-22T05:00:09;3.57;;;1.10;;
11541;SDS011;5827;49.482;7.716;2022-10-22T05:02:12;4.13;;;1.05;;
11541;SDS011;5827;49.482;7.716;2022-10-22T05:04:15;2.30;;;0.90;;
11541;SDS011;5827;49.482;7.716;2022-10-22T05:06:18;4.28;;;1.10;;
11541;SDS011;5827;49.482;7.716;2022-10-22T05:08:21;3.28;;;1.10;;
11541;SDS011;5827;49.482;7.716;2022-10-22T05:10:23;2.88;;;1.00;;
11541;SDS011;5827;49.482;7.716;2022-10-22T05:12:24;3.05;;;1.02;;
11541;SDS011;5827;49.482;7.716;2022-10-22T05:14:26;4.18;;;1.20;;
11541;SDS011;5827;49.482;7.716;2022-10-22T05:16:28;3.00;;;1.30;;
11541;SDS011;5827;49.482;7.716;2022-10-22T05:18:33;4.07;;;1.10;;
11541;SDS011;5827;49.482;7.716;2022-10-22T05:20:37;5.35;;;1.20;;
11541;SDS011;5827;49.482;7.716;2022-10-22T05:22:39;4.53;;;1.40;;
11541;SDS011;5827;49.482;7.716;2022-10-22T05:24:40;3.65;;;1.25;;
11541;SDS011;5827;49.482;7.716;2022-10-22T05:26:42;3.22;;;1.40;;
11541;SDS011;5827;49.482;7.716;2022-10-22T05:28:44;2.88;;;1.25;;
11541;SDS011;5827;49.482;7.716;2022-10-22T05:30:51;2.92;;;1.20;;
11541;SDS011;5827;49.482;7.716;2022-10-22T05:32:53;3.20;;;1.10;;
11541;SDS011;5827;49.482;7.716;2022-10-22T05:34:56;2.08;;;1.30;;
11541;SDS011;5827;49.482;7.716;2022-10-22T05:36:57;3.53;;;1.10;;
11541;SDS011;5827;49.482;7.716;2022-10-22T05:38:58;2.85;;;1.00;;
11541;SDS011;5827;49.482;7.716;2022-10-22T05:41:00;3.28;;;1.10;;
11541;SDS011;5827;49.482;7.716;2022-10-22T05:43:03;3.65;;;1.10;;
11541;SDS011;5827;49.482;7.716;2022-10-22T05:45:05;5.38;;;1.20;;
11541;SDS011;5827;49.482;7.716;2022-10-22T05:47:07;1.92;;;1.05;;
11541;SDS011;5827;49.482;7.716;2022-10-22T05:49:11;4.82;;;1.40;;
11541;SDS011;5827;49.482;7.716;2022-10-22T05:51:15;2.55;;;1.10;;
11541;SDS011;5827;49.482;7.716;2022-10-22T05:53:17;2.97;;;1.20;;
11541;SDS011;5827;49.482;7.716;2022-10-22T05:55:18;2.33;;;1.05;;
11541;SDS011;5827;49.482;7.716;2022-10-22T05:57:20;6.05;;;1.38;;
11541;SDS011;5827;49.482;7.716;2022-10-22T05:59:21;3.57;;;1.50;;
11541;SDS011;5827;49.482;7.716;2022-10-22T06:01:23;2.75;;;1.10;;
11541;SDS011;5827;49.482;7.716;2022-10-22T06:03:26;2.97;;;1.20;;
11541;SDS011;5827;49.482;7.716;2022-10-22T06:05:28;2.95;;;1.08;;
11541;SDS011;5827;49.482;7.716;2022-10-22T06:07:31;6.83;;;1.40;;
11541;SDS011;5827;49.482;7.716;2022-10-22T06:09:33;5.15;;;1.30;;
11541;SDS011;5827;49.482;7.716;2022-10-22T06:11:36;5.70;;;1.20;;
11541;SDS011;5827;49.482;7.716;2022-10-22T06:13:38;3.38;;;1.15;;
11541;SDS011;5827;49.482;7.716;2022-10-22T06:15:39;4.90;;;1.48;;
11541;SDS011;5827;49.482;7.716;2022-10-22T06:17:42;5.13;;;1.30;;
11541;SDS011;5827;49.482;7.716;2022-10-22T06:19:44;2.88;;;1.20;;
11541;SDS011;5827;49.482;7.716;2022-10-22T06:21:46;3.92;;;1.40;;
11541;SDS011;5827;49.482;7.716;2022-10-22T06:23:49;3.38;;;1.42;;
11541;SDS011;5827;49.482;7.716;2022-10-22T06:25:57;3.58;;;1.40;;
11541;SDS011;5827;49.482;7.716;2022-10-22T06:27:59;3.77;;;1.33;;
11541;SDS011;5827;49.482;7.716;2022-10-22T06:30:00;3.65;;;1.23;;
11541;SDS011;5827;49.482;7.716;2022-10-22T06:32:02;5.57;;;1.70;;
11541;SDS011;5827;49.482;7.716;2022-10-22T06:34:04;4.13;;;1.35;;
11541;SDS011;5827;49.482;7.716;2022-10-22T06:36:07;2.70;;;1.58;;
11541;SDS011;5827;49.482;7.716;2022-10-22T06:38:13;4.90;;;1.70;;
11541;SDS011;5827;49.482;7.716;2022-10-22T06:40:16;4.90;;;1.50;;
11541;SDS011;5827;49.482;7.716;2022-10-22T06:42:18;4.10;;;1.63;;
11541;SDS011;5827;49.482;7.716;2022-10-22T06:44:20;4.78;;;1.67;;
11541;SDS011;5827;49.482;7.716;2022-10-22T06:46:21;6.72;;;1.80;;
11541;SDS011;5827;49.482;7.716;2022-10-22T06:48:24;5.22;;;1.58;;
11541;SDS011;5827;49.482;7.716;2022-10-22T06:50:25;4.28;;;1.63;;
11541;SDS011;5827;49.482;7.716;2022-10-22T06:52:27;2.37;;;1.40;;
11541;SDS011;5827;49.482;7.716;2022-10-22T06:54:28;4.97;;;1.70;;
11541;SDS011;5827;49.482;7.716;2022-10-22T06:56:31;6.70;;;1.80;;
11541;SDS011;5827;49.482;7.716;2022-10-22T06:58:33;5.28;;;1.60;;
11541;SDS011;5827;49.482;7.716;2022-10-22T07:00:35;3.55;;;1.67;;
11541;SDS011;5827;49.482;7.716;2022-10-22T07:02:36;6.22;;;2.05;;
11541;SDS011;5827;49.482;7.716;2022-10-22T07:04:37;5.45;;;1.85;;
11541;SDS011;5827;49.482;7.716;2022-10-22T07:06:39;5.03;;;1.83;;
11541;SDS011;5827;49.482;7.716;2022-10-22T07:08:40;8.15;;;1.95;;
11541;SDS011;5827;49.482;7.716;2022-10-22T07:10:42;4.68;;;1.80;;
11541;SDS011;5827;49.482;7.716;2022-10-22T07:12:45;4.97;;;1.73;;
11541;SDS011;5827;49.482;7.716;2022-10-22T07:14:47;2.05;;;1.60;;
11541;SDS011;5827;49.482;7.716;2022-10-22T07:16:49;2.53;;;1.60;;
11541;SDS011;5827;49.482;7.716;2022-10-22T07:18:50;2.97;;;1.80;;
11541;SDS011;5827;49.482;7.716;2022-10-22T07:20:52;5.88;;;1.88;;
11541;SDS011;5827;49.482;7.716;2022-10-22T07:22:54;5.90;;;1.58;;
11541;SDS011;5827;49.482;7.716;2022-10-22T07:24:55;3.53;;;1.50;;
11541;SDS011;5827;49.482;7.716;2022-10-22T07:26:57;3.47;;;1.48;;
11541;SDS011;5827;49.482;7.716;2022-10-22T07:29:00;3.88;;;2.42;;
11541;SDS011;5827;49.482;7.716;2022-10-22T07:31:01;9.57;;;4.05;;
11541;SDS011;5827;49.482;7.716;2022-10-22T07:33:03;6.97;;;4.78;;
11541;SDS011;5827;49.482;7.716;2022-10-22T07:35:06;6.53;;;4.97;;
11541;SDS011;5827;49.482;7.716;2022-10-22T07:37:07;9.80;;;5.65;;
11541;SDS011;5827;49.482;7.716;2022-10-22T07:39:09;8.40;;;5.00;;
11541;SDS011;5827;49.482;7.716;2022-10-22T07:41:10;4.85;;;3.38;;
11541;SDS011;5827;49.482;7.716;2022-10-22T07:43:12;7.28;;;3.53;;
11541;SDS011;5827;49.482;7.716;2022-10-22T07:45:17;6.95;;;4.10;;
11541;SDS011;5827;49.482;7.716;2022-10-22T07:47:19;7.72;;;4.10;;
11541;SDS011;5827;49.482;7.716;2022-10-22T07:49:20;8.18;;;3.63;;
11541;SDS011;5827;49.482;7.716;2022-10-22T07:51:21;6.90;;;3.40;;
11541;SDS011;5827;49.482;7.716;2022-10-22T07:53:23;4.35;;;3.28;;
11541;SDS011;5827;49.482;7.716;2022-10-22T07:55:24;5.35;;;3.83;;
11541;SDS011;5827;49.482;7.716;2022-10-22T07:57:26;5.50;;;3.50;;
11541;SDS011;5827;49.482;7.716;2022-10-22T07:59:27;4.97;;;3.47;;
11541;SDS011;5827;49.482;7.716;2022-10-22T08:01:30;5.80;;;3.50;;
11541;SDS011;5827;49.482;7.716;2022-10-22T08:03:32;3.88;;;2.40;;
11541;SDS011;5827;49.482;7.716;2022-10-22T08:05:34;3.35;;;2.15;;
11541;SDS011;5827;49.482;7.716;2022-10-22T08:07:35;3.17;;;1.80;;
11541;SDS011;5827;49.482;7.716;2022-10-22T08:09:37;2.20;;;1.40;;
11541;SDS011;5827;49.482;7.716;2022-10-22T08:11:38;3.20;;;1.50;;
11541;SDS011;5827;49.482;7.716;2022-10-22T08:13:39;3.70;;;1.30;;
11541;SDS011;5827;49.482;7.716;2022-10-22T08:15:41;3.10;;;1.50;;
11541;SDS011;5827;49.482;7.716;2022-10-22T08:17:44;3.40;;;1.40;;
11541;SDS011;5827;49.482;7.716;2022-10-22T08:19:46;5.07;;;1.45;;
11541;SDS011;5827;49.482;7.716;2022-10-22T08:21:47;2.63;;;1.55;;
11541;SDS011;5827;49.482;7.716;2022-10-22T08:23:49;3.85;;;1.70;;
11541;SDS011;5827;49.482;7.716;2022-10-22T08:25:50;3.28;;;1.60;;
11541;SDS011;5827;49.482;7.716;2022-10-22T08:27:52;3.60;;;1.50;;
11541;SDS011;5827;49.482;7.716;2022-10-22T08:29:53;4.13;;;1.45;;
11541;SDS011;5827;49.482;7.716;2022-10-22T08:31:55;1.85;;;1.40;;
11541;SDS011;5827;49.482;7.716;2022-10-22T08:33:57;3.85;;;1.40;;
11541;SDS011;5827;49.482;7.716;2022-10-22T08:35:59;3.63;;;1.50;;
11541;SDS011;5827;49.482;7.716;2022-10-22T08:38:00;4.75;;;1.42;;
11541;SDS011;5827;49.482;7.716;2022-10-22T08:40:02;3.42;;;1.50;;
11541;SDS011;5827;49.482;7.716;2022-10-22T08:42:06;4.90;;;1.50;;
11541;SDS011;5827;49.482;7.716;2022-10-22T08:44:30;2.33;;;1.40;;
11541;SDS011;5827;49.482;7.716;2022-10-22T08:47:12;3.75;;;1.30;;
11541;SDS011;5827;49.482;7.716;2022-10-22T08:49:33;2.78;;;1.30;;
11541;SDS011;5827;49.482;7.716;2022-10-22T08:51:37;3.10;;;1.35;;
11541;SDS011;5827;49.482;7.716;2022-10-22T08:53:40;1.80;;;1.38;;
11541;SDS011;5827;49.482;7.716;2022-10-22T08:55:52;2.80;;;1.27;;
11541;SDS011;5827;49.482;7.716;2022-10-22T08:57:55;2.83;;;1.58;;
11541;SDS011;5827;49.482;7.716;2022-10-22T09:00:03;6.32;;;1.95;;
11541;SDS011;5827;49.482;7.716;2022-10-22T09:02:08;2.20;;;1.50;;
11541;SDS011;5827;49.482;7.716;2022-10-22T09:04:23;4.53;;;2.20;;
11541;SDS011;5827;49.482;7.716;2022-10-22T09:06:30;3.00;;;1.70;;
11541;SDS011;5827;49.482;7.716;2022-10-22T09:08:36;3.15;;;1.70;;
11541;SDS011;5827;49.482;7.716;2022-10-22T09:10:42;2.20;;;1.40;;
11541;SDS011;5827;49.482;7.716;2022-10-22T09:12:48;3.95;;;1.83;;
11541;SDS011;5827;49.482;7.716;2022-10-22T09:14:50;4.03;;;1.63;;
11541;SDS011;5827;49.482;7.716;2022-10-22T09:17:03;2.35;;;1.50;;
11541;SDS011;5827;49.482;7.716;2022-10-22T09:19:14;2.83;;;1.48;;
11541;SDS011;5827;49.482;7.716;2022-10-22T09:21:23;3.22;;;1.40;;
11541;SDS011;5827;49.482;7.716;2022-10-22T09:23:32;4.57;;;1.60;;
11541;SDS011;5827;49.482;7.716;2022-10-22T09:25:40;4.43;;;1.80;;
11541;SDS011;5827;49.482;7.716;2022-10-22T09:27:44;4.47;;;1.70;;
11541;SDS011;5827;49.482;7.716;2022-10-22T09:29:46;2.80;;;1.65;;
11541;SDS011;5827;49.482;7.716;2022-10-22T09:31:48;3.70;;;1.42;;
11541;SDS011;5827;49.482;7.716;2022-10-22T09:33:50;5.33;;;1.57;;
11541;SDS011;5827;49.482;7.716;2022-10-22T09:35:52;2.95;;;1.60;;
11541;SDS011;5827;49.482;7.716;2022-10-22T09:37:56;3.08;;;1.23;;
11541;SDS011;5827;49.482;7.716;2022-10-22T09:39:59;3.13;;;1.50;;
11541;SDS011;5827;49.482;7.716;2022-10-22T09:42:05;4.43;;;1.65;;
11541;SDS011;5827;49.482;7.716;2022-10-22T09:44:07;4.93;;;1.60;;
11541;SDS011;5827;49.482;7.716;2022-10-22T09:46:13;4.40;;;1.30;;
11541;SDS011;5827;49.482;7.716;2022-10-22T09:48:18;4.20;;;1.47;;
11541;SDS011;5827;49.482;7.716;2022-10-22T09:50:26;3.50;;;1.42;;
11541;SDS011;5827;49.482;7.716;2022-10-22T09:52:30;2.60;;;1.42;;
11541;SDS011;5827;49.482;7.716;2022-10-22T09:54:38;3.17;;;1.55;;
11541;SDS011;5827;49.482;7.716;2022-10-22T09:56:46;3.88;;;1.67;;
11541;SDS011;5827;49.482;7.716;2022-10-22T09:58:51;5.27;;;1.63;;
11541;SDS011;5827;49.482;7.716;2022-10-22T10:00:56;3.53;;;1.50;;
11541;SDS011;5827;49.482;7.716;2022-10-22T10:02:59;4.23;;;1.73;;
11541;SDS011;5827;49.482;7.716;2022-10-22T10:05:06;4.35;;;1.63;;
11541;SDS011;5827;49.482;7.716;2022-10-22T10:07:15;4.25;;;1.60;;
11541;SDS011;5827;49.482;7.716;2022-10-22T10:09:19;3.35;;;1.48;;
11541;SDS011;5827;49.482;7.716;2022-10-22T10:11:24;3.13;;;1.40;;
11541;SDS011;5827;49.482;7.716;2022-10-22T10:13:40;5.25;;;1.60;;
11541;SDS011;5827;49.482;7.716;2022-10-22T10:15:48;3.92;;;1.50;;
11541;SDS011;5827;49.482;7.716;2022-10-22T10:17:57;5.05;;;1.38;;
11541;SDS011;5827;49.482;7.716;2022-10-22T10:20:23;3.65;;;1.38;;
11541;SDS011;5827;49.482;7.716;2022-10-22T10:22:35;3.65;;;1.45;;
11541;SDS011;5827;49.482;7.716;2022-10-22T10:24:49;3.33;;;1.40;;
11541;SDS011;5827;49.482;7.716;2022-10-22T10:27:06;2.67;;;1.48;;
11541;SDS011;5827;49.482;7.716;2022-10-22T10:29:20;3.45;;;1.25;;
11541;SDS011;5827;49.482;7.716;2022-10-22T10:31:33;4.03;;;1.60;;
11541;SDS011;5827;49.482;7.716;2022-10-22T10:33:45;5.15;;;1.63;;
11541;SDS011;5827;49.482;7.716;2022-10-22T10:35:54;5.15;;;1.60;;
11541;SDS011;5827;49.482;7.716;2022-10-22T10:38:07;3.17;;;1.27;;
11541;SDS011;5827;49.482;7.716;2022-10-22T10:40:22;4.53;;;1.30;;
11541;SDS011;5827;49.482;7.716;2022-10-22T10:42:30;6.05;;;1.63;;
11541;SDS011;5827;49.482;7.716;2022-10-22T10:44:49;5.22;;;1.60;;
11541;SDS011;5827;49.482;7.716;2022-10-22T10:46:59;4.95;;;1.75;;
11541;SDS011;5827;49.482;7.716;2022-10-22T10:49:14;3.92;;;1.50;;
11541;SDS011;5827;49.482;7.716;2022-10-22T10:51:23;4.22;;;1.50;;
11541;SDS011;5827;49.482;7.716;2022-10-22T10:53:39;2.95;;;1.40;;
11541;SDS011;5827;49.482;7.716;2022-10-22T10:55:52;4.22;;;1.50;;
11541;SDS011;5827;49.482;7.716;2022-10-22T10:58:02;4.75;;;2.08;;
11541;SDS011;5827;49.482;7.716;2022-10-22T11:00:16;5.88;;;1.58;;
11541;SDS011;5827;49.482;7.716;2022-10-22T11:02:29;4.38;;;1.67;;
11541;SDS011;5827;49.482;7.716;2022-10-22T11:04:47;4.03;;;1.50;;
11541;SDS011;5827;49.482;7.716;2022-10-22T11:07:03;6.95;;;1.63;;
11541;SDS011;5827;49.482;7.716;2022-10-22T11:09:13;5.53;;;1.60;;
11541;SDS011;5827;49.482;7.716;2022-10-22T11:11:25;4.95;;;1.77;;
11541;SDS011;5827;49.482;7.716;2022-10-22T11:13:34;3.22;;;1.67;;
11541;SDS011;5827;49.482;7.716;2022-10-22T11:15:40;2.78;;;1.30;;
11541;SDS011;5827;49.482;7.716;2022-10-22T11:17:47;5.00;;;1.45;;
11541;SDS011;5827;49.482;7.716;2022-10-22T11:19:50;4.20;;;1.60;;
11541;SDS011;5827;49.482;7.716;2022-10-22T11:22:00;5.03;;;2.45;;
11541;SDS011;5827;49.482;7.716;2022-10-22T11:24:08;4.28;;;1.63;;
11541;SDS011;5827;49.482;7.716;2022-10-22T11:26:20;8.07;;;1.90;;
11541;SDS011;5827;49.482;7.716;2022-10-22T11:28:31;5.72;;;1.77;;
11541;SDS011;5827;49.482;7.716;2022-10-22T11:30:35;5.13;;;1.55;;
11541;SDS011;5827;49.482;7.716;2022-10-22T11:32:39;7.78;;;1.65;;
11541;SDS011;5827;49.482;7.716;2022-10-22T11:34:43;4.57;;;1.52;;
11541;SDS011;5827;49.482;7.716;2022-10-22T11:36:48;5.57;;;1.70;;
11541;SDS011;5827;49.482;7.716;2022-10-22T11:38:51;3.58;;;1.40;;
11541;SDS011;5827;49.482;7.716;2022-10-22T11:40:55;5.90;;;1.77;;
11541;SDS011;5827;49.482;7.716;2022-10-22T11:43:02;7.00;;;2.00;;
11541;SDS011;5827;49.482;7.716;2022-10-22T11:45:23;5.10;;;1.70;;
11541;SDS011;5827;49.482;7.716;2022-10-22T11:47:30;4.90;;;1.85;;
11541;SDS011;5827;49.482;7.716;2022-10-22T11:49:42;3.72;;;1.65;;
11541;SDS011;5827;49.482;7.716;2022-10-22T11:51:45;4.27;;;1.63;;
11541;SDS011;5827;49.482;7.716;2022-10-22T11:53:47;5.03;;;1.80;;
11541;SDS011;5827;49.482;7.716;2022-10-22T11:55:56;5.05;;;2.03;;
11541;SDS011;5827;49.482;7.716;2022-10-22T11:58:10;3.75;;;1.58;;
11541;SDS011;5827;49.482;7.716;2022-10-22T12:00:32;4.97;;;1.90;;
11541;SDS011;5827;49.482;7.716;2022-10-22T12:02:39;4.25;;;1.60;;
11541;SDS011;5827;49.482;7.716;2022-10-22T12:04:44;7.03;;;1.80;;
11541;SDS011;5827;49.482;7.716;2022-10-22T12:06:50;4.22;;;1.80;;
11541;SDS011;5827;49.482;7.716;2022-10-22T12:08:57;5.72;;;1.67;;
11541;SDS011;5827;49.482;7.716;2022-10-22T12:11:10;4.30;;;1.70;;
11541;SDS011;5827;49.482;7.716;2022-10-22T12:13:17;5.00;;;1.60;;
11541;SDS011;5827;49.482;7.716;2022-10-22T12:15:23;4.03;;;1.45;;
11541;SDS011;5827;49.482;7.716;2022-10-22T12:17:27;3.95;;;1.70;;
11541;SDS011;5827;49.482;7.716;2022-10-22T12:19:30;6.68;;;2.00;;
11541;SDS011;5827;49.482;7.716;2022-10-22T12:21:36;5.60;;;1.80;;
11541;SDS011;5827;49.482;7.716;2022-10-22T12:23:40;4.47;;;1.60;;
11541;SDS011;5827;49.482;7.716;2022-10-22T12:25:42;4.10;;;1.80;;
11541;SDS011;5827;49.482;7.716;2022-10-22T12:27:43;5.38;;;1.60;;
11541;SDS011;5827;49.482;7.716;2022-10-22T12:29:53;7.22;;;1.83;;
11541;SDS011;5827;49.482;7.716;2022-10-22T12:31:55;5.18;;;1.70;;
11541;SDS011;5827;49.482;7.716;2022-10-22T12:33:57;6.68;;;1.45;;
11541;SDS011;5827;49.482;7.716;2022-10-22T12:35:59;4.27;;;1.70;;
11541;SDS011;5827;49.482;7.716;2022-10-22T12:38:15;3.85;;;1.40;;
11541;SDS011;5827;49.482;7.716;2022-10-22T12:40:19;6.18;;;1.60;;
11541;SDS011;5827;49.482;7.716;2022-10-22T12:42:23;5.85;;;1.90;;
11541;SDS011;5827;49.482;7.716;2022-10-22T12:44:25;4.00;;;1.60;;
11541;SDS011;5827;49.482;7.716;2022-10-22T12:46:27;4.93;;;1.58;;